TimeMDT,TemperatureF,Dew PointF,Humidity,Sea Level PressureIn,VisibilityMPH,Wind Direction,Wind SpeedMPH,Gust SpeedMPH,PrecipitationIn,Events,Conditions,WindDirDegrees,DateUTC
12:00 AM,37,33,82,,,South,19.6,,,,,170,2012-10-12 06:00:00
12:00 AM,37.2,33.4,86,-9999,-9999.0,South,19.6,-,N/A,,Unknown,170,2012-10-12 06:00:00
1:00 AM,36.7,33.3,87,-9999,-9999.0,SSE,17.3,-,N/A,,Unknown,160,2012-10-12 07:00:00
2:00 AM,36.9,33.4,87,-9999,-9999.0,South,18.4,-,N/A,,Unknown,170,2012-10-12 08:00:00
3:00 AM,36.9,33.3,87,-9999,-9999.0,South,13.8,-,N/A,,Unknown,180,2012-10-12 09:00:00
4:00 AM,36.7,32.9,86,-9999,-9999.0,South,5.8,-,N/A,,Unknown,180,2012-10-12 10:00:00
5:00 AM,35.2,32.0,88,-9999,-9999.0,South,4.6,-,N/A,,Unknown,180,2012-10-12 11:00:00
6:00 AM,38,33,76,,,SSE,9.2,,,,,160,2012-10-12 12:00:00
6:00 AM,37.6,33.1,84,-9999,-9999.0,SSE,9.2,-,N/A,,Unknown,160,2012-10-12 12:00:00
7:00 AM,37.9,33.8,85,-9999,-9999.0,South,8.1,-,N/A,,Unknown,170,2012-10-12 13:00:00
8:00 AM,38.1,33.8,84,-9999,-9999.0,South,5.8,-,N/A,,Unknown,170,2012-10-12 14:00:00
9:00 AM,39.2,34.2,82,-9999,-9999.0,SSE,6.9,-,N/A,,Unknown,160,2012-10-12 15:00:00
11:00 AM,50.2,39.0,66,-9999,-9999.0,South,8.1,-,N/A,,Unknown,180,2012-10-12 17:00:00
12:00 PM,53,40,49,,,South,10.4,,,,,190,2012-10-12 18:00:00
12:00 PM,53.1,39.6,60,-9999,-9999.0,South,10.4,-,N/A,,Unknown,190,2012-10-12 18:00:00
1:00 PM,54.1,38.5,55,-9999,-9999.0,South,9.2,-,N/A,,Unknown,170,2012-10-12 19:00:00
2:00 PM,57.6,35.2,43,-9999,-9999.0,SW,19.6,-,N/A,,Unknown,230,2012-10-12 20:00:00
3:00 PM,61.3,34.3,36,-9999,-9999.0,SW,17.3,-,N/A,,Unknown,220,2012-10-12 21:00:00
5:00 PM,64.9,33.4,31,-9999,-9999.0,WSW,19.6,-,N/A,,Unknown,250,2012-10-12 23:00:00
6:00 PM,63,33,22,,,WSW,17.3,,,,,240,2012-10-13 00:00:00
6:00 PM,63.3,33.4,33,-9999,-9999.0,WSW,17.3,-,N/A,,Unknown,240,2012-10-13 00:00:00
7:00 PM,60.3,34.5,38,-9999,-9999.0,WSW,11.5,-,N/A,,Unknown,250,2012-10-13 01:00:00
8:00 PM,57.0,35.2,44,-9999,-9999.0,West,11.5,-,N/A,,Unknown,260,2012-10-13 02:00:00
9:00 PM,53.2,36.0,52,-9999,-9999.0,WSW,10.4,-,N/A,,Unknown,250,2012-10-13 03:00:00
10:00 PM,45.9,37.8,73,-9999,-9999.0,NNW,6.9,-,N/A,,Unknown,340,2012-10-13 04:00:00
11:00 PM,40.8,36.7,85,-9999,-9999.0,NNW,5.8,-,N/A,,Unknown,340,2012-10-13 05:00:00